createdAt,value
2019-03-23T00:02:11.107Z,10.90
2019-03-23T00:05:16.994Z,10.00
2019-03-23T00:08:22.897Z,9.20
2019-03-23T00:11:29.138Z,9.33
2019-03-23T00:14:35.022Z,9.60
2019-03-23T00:17:40.976Z,9.87
2019-03-23T00:20:46.902Z,11.57
2019-03-23T00:23:52.798Z,11.40
2019-03-23T00:26:58.728Z,13.50
2019-03-23T00:30:05.242Z,8.67
2019-03-23T00:33:11.255Z,12.27
2019-03-23T00:36:17.142Z,9.10
2019-03-23T00:39:23.037Z,9.73
2019-03-23T00:42:30.504Z,9.83
2019-03-23T00:45:36.380Z,8.60
2019-03-23T00:48:42.299Z,9.40
2019-03-23T00:51:48.272Z,10.13
2019-03-23T00:54:54.202Z,11.40
2019-03-23T00:58:00.141Z,11.03
2019-03-23T01:01:06.117Z,9.30
2019-03-23T01:04:12.059Z,9.63
2019-03-23T01:07:19.089Z,9.43
2019-03-23T01:10:25.127Z,10.77
2019-03-23T01:13:31.056Z,9.73
2019-03-23T01:16:36.991Z,14.30
2019-03-23T01:19:42.836Z,11.83
2019-03-23T01:22:48.766Z,10.30
2019-03-23T01:25:54.652Z,8.50
2019-03-23T01:29:00.607Z,10.37
2019-03-23T01:32:06.491Z,9.77
2019-03-23T01:35:13.859Z,8.37
2019-03-23T01:38:19.723Z,10.47
2019-03-23T01:41:25.579Z,9.57
2019-03-23T01:44:33.501Z,10.03
2019-03-23T01:47:39.417Z,11.30
2019-03-23T01:50:45.351Z,13.00
2019-03-23T01:53:51.253Z,10.50
2019-03-23T01:56:57.281Z,11.90
2019-03-23T02:00:03.658Z,9.93
2019-03-23T02:03:09.742Z,11.53
2019-03-23T02:06:15.694Z,16.40
2019-03-23T02:09:21.586Z,12.00
2019-03-23T02:12:27.480Z,13.87
2019-03-23T02:15:33.456Z,16.57
2019-03-23T02:18:39.371Z,20.87
2019-03-23T02:21:45.221Z,22.13
2019-03-23T02:24:51.182Z,33.40
2019-03-23T02:27:57.201Z,32.20
2019-03-23T02:31:03.280Z,32.97
2019-03-23T02:34:09.216Z,34.67
2019-03-23T02:37:27.263Z,44.17
2019-03-23T02:40:22.826Z,50.53
2019-03-23T02:43:30.734Z,47.10
2019-03-23T02:46:36.602Z,58.40
2019-03-23T02:49:42.617Z,51.53
2019-03-23T02:52:48.465Z,58.93
2019-03-23T02:55:54.382Z,66.80
2019-03-23T02:59:00.296Z,83.00
2019-03-23T03:02:06.296Z,79.13
2019-03-23T03:05:13.364Z,83.63
2019-03-23T03:08:19.284Z,81.07
2019-03-23T03:11:25.241Z,94.30
2019-03-23T03:14:31.291Z,100.83
2019-03-23T03:17:39.285Z,102.80
2019-03-23T03:20:45.278Z,100.47
2019-03-23T03:23:53.246Z,112.87
2019-03-23T03:26:59.247Z,110.17
2019-03-23T03:30:06.006Z,120.00
2019-03-23T03:33:12.118Z,122.97
2019-03-23T03:36:18.134Z,126.33
2019-03-23T03:39:24.127Z,123.33
2019-03-23T03:42:30.035Z,120.33
2019-03-23T03:45:37.561Z,119.77
2019-03-23T03:48:43.632Z,115.63
2019-03-23T03:51:49.688Z,135.07
2019-03-23T03:54:55.693Z,198.90
2019-03-23T03:58:01.662Z,237.30
2019-03-23T04:01:07.549Z,167.40
2019-03-23T04:04:13.438Z,203.77
2019-03-23T04:07:19.283Z,184.67
2019-03-23T04:10:25.286Z,150.03
2019-03-23T04:13:31.282Z,170.00
2019-03-23T04:16:37.157Z,217.17
2019-03-23T04:19:43.088Z,229.33
2019-03-23T04:22:49.028Z,237.37
2019-03-23T04:25:55.047Z,373.27
2019-03-23T04:29:01.047Z,168.30
2019-03-23T04:32:07.249Z,150.43
2019-03-23T04:35:13.252Z,147.00
2019-03-23T04:38:23.067Z,128.90
2019-03-23T04:41:27.815Z,134.57
2019-03-23T04:44:33.735Z,127.33
2019-03-23T04:47:39.707Z,136.73
2019-03-23T04:50:46.625Z,125.03
2019-03-23T04:53:52.545Z,135.70
2019-03-23T04:56:58.390Z,124.30
2019-03-23T05:00:04.602Z,116.00
2019-03-23T05:03:10.543Z,121.17
2019-03-23T05:06:16.501Z,121.03
2019-03-23T05:09:22.531Z,124.80
2019-03-23T05:12:28.466Z,120.37
2019-03-23T05:15:35.347Z,126.10
2019-03-23T05:18:41.248Z,133.70
2019-03-23T05:21:47.263Z,128.30
2019-03-23T05:24:53.118Z,121.03
2019-03-23T05:28:00.046Z,121.50
2019-03-23T05:31:07.110Z,120.30
2019-03-23T05:34:13.265Z,119.47
2019-03-23T05:37:19.182Z,130.10
2019-03-23T05:40:25.376Z,124.57
2019-03-23T05:43:31.672Z,121.40
2019-03-23T05:46:37.545Z,121.30
2019-03-23T05:49:43.445Z,128.27
2019-03-23T05:52:49.315Z,125.57
2019-03-23T05:55:55.242Z,129.00
2019-03-23T05:59:01.154Z,117.37
2019-03-23T06:02:07.086Z,131.33
2019-03-23T06:05:13.009Z,115.03
2019-03-23T06:08:18.906Z,125.10
2019-03-23T06:11:24.810Z,128.63
2019-03-23T06:14:30.700Z,120.40
2019-03-23T06:17:36.606Z,117.90
2019-03-23T06:20:42.642Z,107.63
2019-03-23T06:23:48.723Z,116.40
2019-03-23T06:26:57.229Z,115.47
2019-03-23T06:30:03.129Z,109.60
2019-03-23T06:33:09.414Z,112.13
2019-03-23T06:36:15.445Z,136.47
2019-03-23T06:39:21.304Z,122.17
2019-03-23T06:42:28.266Z,133.13
2019-03-23T06:45:34.261Z,134.60
2019-03-23T06:48:41.494Z,115.57
2019-03-23T06:51:47.364Z,127.40
2019-03-23T06:54:54.491Z,142.60
2019-03-23T06:58:00.461Z,127.30
2019-03-23T07:01:06.401Z,125.53
2019-03-23T07:04:12.322Z,113.97
2019-03-23T07:07:18.405Z,134.83
2019-03-23T07:10:24.529Z,123.73
2019-03-23T07:13:30.464Z,117.90
2019-03-23T07:16:36.426Z,127.13
2019-03-23T07:19:42.343Z,116.50
2019-03-23T07:22:48.251Z,111.60
2019-03-23T07:25:54.226Z,120.73
2019-03-23T07:29:00.526Z,120.87
2019-03-23T07:32:06.991Z,110.90
2019-03-23T07:35:13.168Z,128.17
2019-03-23T07:38:19.110Z,136.63
2019-03-23T07:41:25.029Z,140.63
2019-03-23T07:44:30.916Z,130.27
2019-03-23T07:47:36.867Z,122.33
2019-03-23T07:50:43.255Z,142.27
2019-03-23T07:53:49.146Z,140.87
2019-03-23T07:56:55.159Z,141.10
2019-03-23T08:00:01.199Z,144.37
2019-03-23T08:03:07.040Z,130.63
2019-03-23T08:06:13.039Z,131.23
2019-03-23T08:09:20.663Z,117.97
2019-03-23T08:12:26.568Z,106.33
2019-03-23T08:15:35.715Z,116.40
2019-03-23T08:18:41.714Z,112.33
2019-03-23T08:21:48.042Z,123.17
2019-03-23T08:24:55.130Z,107.97
2019-03-23T08:28:01.160Z,116.40
2019-03-23T08:31:07.082Z,129.83
2019-03-23T08:34:13.051Z,108.43
2019-03-23T08:37:19.062Z,122.53
2019-03-23T08:40:25.146Z,119.93
2019-03-23T08:43:31.010Z,136.13
2019-03-23T08:46:37.088Z,127.30
2019-03-23T08:49:44.459Z,139.97
2019-03-23T08:52:50.433Z,135.87
2019-03-23T08:55:56.461Z,145.13
2019-03-23T08:59:03.541Z,136.70
2019-03-23T09:02:09.396Z,139.00
2019-03-23T09:05:15.362Z,130.00
2019-03-23T09:08:21.344Z,125.53
2019-03-23T09:11:27.231Z,154.23
2019-03-23T09:14:33.215Z,134.90
2019-03-23T09:17:39.411Z,138.53
2019-03-23T09:20:45.334Z,121.20
2019-03-23T09:23:53.884Z,128.80
2019-03-23T09:26:59.829Z,141.90
2019-03-23T09:30:06.435Z,139.53
2019-03-23T09:33:13.286Z,135.03
2019-03-23T09:36:22.797Z,135.33
2019-03-23T09:39:27.288Z,120.50
2019-03-23T09:42:33.185Z,111.13
2019-03-23T09:45:39.114Z,123.93
2019-03-23T09:48:45.169Z,124.10
2019-03-23T09:51:52.866Z,114.30
2019-03-23T09:54:58.785Z,118.77
2019-03-23T09:58:04.719Z,135.73
2019-03-23T10:01:10.704Z,114.13
2019-03-23T10:04:16.705Z,120.33
2019-03-23T10:07:22.739Z,115.23
2019-03-23T10:10:28.614Z,114.93
2019-03-23T10:13:34.555Z,106.03
2019-03-23T10:16:40.497Z,122.97
2019-03-23T10:19:46.522Z,114.63
2019-03-23T10:22:52.435Z,110.30
2019-03-23T10:25:58.466Z,106.73
2019-03-23T10:29:04.406Z,100.40
2019-03-23T10:32:12.844Z,112.27
2019-03-23T10:35:18.865Z,127.37
2019-03-23T10:38:24.914Z,122.70
2019-03-23T10:41:30.807Z,125.53
2019-03-23T10:44:36.715Z,99.83
2019-03-23T10:47:42.834Z,109.13
2019-03-23T10:50:48.877Z,108.87
2019-03-23T10:53:54.749Z,109.53
2019-03-23T10:57:00.713Z,102.83
2019-03-23T11:00:07.467Z,104.87
2019-03-23T11:03:14.945Z,104.10
2019-03-23T11:06:21.035Z,97.83
2019-03-23T11:09:26.995Z,99.80
2019-03-23T11:12:32.893Z,96.30
2019-03-23T11:15:38.880Z,99.67
2019-03-23T11:18:46.008Z,96.33
2019-03-23T11:21:51.974Z,95.97
2019-03-23T11:24:57.936Z,100.90
2019-03-23T11:28:04.220Z,102.57
2019-03-23T11:31:10.106Z,95.57
2019-03-23T11:34:18.089Z,88.87
2019-03-23T11:37:23.801Z,93.70
2019-03-23T11:40:31.848Z,78.93
2019-03-23T11:43:37.599Z,69.50
2019-03-23T11:46:44.035Z,91.90
2019-03-23T11:49:49.940Z,77.50
2019-03-23T11:52:55.797Z,80.90
2019-03-23T11:56:01.813Z,80.20
2019-03-23T11:59:07.744Z,77.83
2019-03-23T12:02:13.741Z,76.83
2019-03-23T12:05:19.695Z,82.63
2019-03-23T12:08:25.628Z,83.83
2019-03-23T12:11:32.570Z,84.73
2019-03-23T12:14:38.548Z,80.33
2019-03-23T12:17:47.628Z,78.57
2019-03-23T12:20:53.556Z,74.00
2019-03-23T12:23:59.518Z,75.57
2019-03-23T12:27:05.458Z,79.73
2019-03-23T12:30:13.969Z,79.43
2019-03-23T12:33:21.519Z,74.10
2019-03-23T12:36:27.605Z,73.90
2019-03-23T12:39:33.633Z,76.90
2019-03-23T12:42:39.564Z,82.77
2019-03-23T12:45:45.727Z,70.73
2019-03-23T12:48:51.769Z,73.03
2019-03-23T12:51:57.728Z,72.57
2019-03-23T12:55:03.718Z,74.30
2019-03-23T12:58:09.759Z,85.00
2019-03-23T13:01:16.019Z,77.90
2019-03-23T13:04:22.147Z,74.93
2019-03-23T13:07:28.098Z,78.63
2019-03-23T13:10:34.029Z,76.87
2019-03-23T13:13:39.846Z,81.53
2019-03-23T13:16:45.820Z,70.67
2019-03-23T13:19:51.938Z,75.43
2019-03-23T13:22:57.902Z,70.20
2019-03-23T13:26:03.858Z,72.73
2019-03-23T13:29:09.812Z,70.80
2019-03-23T13:32:16.732Z,67.50
2019-03-23T13:35:22.712Z,61.43
2019-03-23T13:38:28.710Z,63.17
2019-03-23T13:41:41.196Z,69.30
2019-03-23T13:44:42.351Z,66.43
2019-03-23T13:47:48.385Z,83.87
2019-03-23T13:50:54.337Z,74.07
2019-03-23T13:54:00.376Z,83.13
2019-03-23T13:57:06.316Z,71.30
2019-03-23T14:00:12.313Z,74.10
2019-03-23T14:03:18.202Z,66.70
2019-03-23T14:06:25.733Z,66.43
2019-03-23T14:09:34.227Z,60.10
2019-03-23T14:12:42.202Z,61.10
2019-03-23T14:15:48.499Z,67.90
2019-03-23T14:18:54.413Z,70.40
2019-03-23T14:22:00.473Z,67.80
2019-03-23T14:25:06.974Z,70.63
2019-03-23T14:28:12.908Z,74.83
2019-03-23T14:31:23.527Z,77.67
2019-03-23T14:34:29.383Z,66.43
2019-03-23T14:37:35.362Z,62.00
2019-03-23T14:40:41.475Z,55.60
2019-03-23T14:43:47.457Z,59.13
2019-03-23T14:46:53.391Z,55.93
2019-03-23T14:49:59.457Z,60.43
2019-03-23T14:53:08.533Z,58.60
2019-03-23T14:56:14.479Z,68.53
2019-03-23T14:59:22.478Z,60.90
2019-03-23T15:02:28.499Z,67.27
2019-03-23T15:05:37.411Z,65.50
2019-03-23T15:08:43.396Z,61.93
2019-03-23T15:11:49.321Z,67.73
2019-03-23T15:14:55.205Z,60.20
2019-03-23T15:18:01.071Z,65.47
2019-03-23T15:21:07.118Z,69.90
2019-03-23T15:24:13.004Z,66.97
2019-03-23T15:27:18.941Z,70.13
2019-03-23T15:30:24.833Z,70.97
2019-03-23T15:33:30.790Z,66.43
2019-03-23T15:36:36.717Z,63.03
2019-03-23T15:39:42.601Z,71.33
2019-03-23T15:42:48.572Z,75.47
2019-03-23T15:45:54.993Z,74.43
2019-03-23T15:49:00.940Z,71.70
2019-03-23T15:52:08.063Z,80.23
2019-03-23T15:55:14.035Z,79.10
2019-03-23T15:58:19.920Z,73.60
2019-03-23T16:01:25.935Z,74.50
2019-03-23T16:04:31.881Z,75.83
2019-03-23T16:07:38.007Z,70.53
2019-03-23T16:10:44.887Z,76.33
2019-03-23T16:13:50.896Z,89.23
2019-03-23T16:16:56.853Z,89.03
2019-03-23T16:20:02.858Z,87.53
2019-03-23T16:23:08.953Z,90.50
2019-03-23T16:26:14.853Z,93.00
2019-03-23T16:29:20.713Z,97.57
2019-03-23T16:32:26.635Z,90.57
2019-03-23T16:35:32.900Z,99.93
2019-03-23T16:38:51.657Z,100.40
2019-03-23T16:41:57.518Z,95.90
2019-03-23T16:45:03.474Z,86.20
2019-03-23T16:48:09.483Z,92.00
2019-03-23T16:51:15.441Z,92.10
2019-03-23T16:54:21.393Z,92.47
2019-03-23T16:57:27.384Z,91.17
2019-03-23T17:00:37.753Z,94.37
2019-03-23T17:03:44.962Z,91.07
2019-03-23T17:06:51.237Z,94.13
2019-03-23T17:09:57.174Z,99.13
2019-03-23T17:13:03.086Z,93.53
2019-03-23T17:16:10.096Z,89.67
2019-03-23T17:19:16.448Z,83.00
2019-03-23T17:22:22.698Z,85.03
2019-03-23T17:25:29.816Z,74.03
2019-03-23T17:28:35.771Z,66.30
2019-03-23T17:31:41.673Z,75.50
2019-03-23T17:34:47.637Z,66.53
2019-03-23T17:37:55.218Z,72.50
2019-03-23T17:41:01.159Z,76.63
2019-03-23T17:44:08.177Z,73.93
2019-03-23T17:47:14.043Z,75.67
2019-03-23T17:50:19.959Z,80.37
2019-03-23T17:53:25.978Z,87.70
2019-03-23T17:56:32.053Z,80.23
2019-03-23T17:59:40.667Z,83.37
2019-03-23T18:02:46.698Z,81.90
2019-03-23T18:05:52.606Z,85.97
2019-03-23T18:08:58.520Z,65.70
2019-03-23T18:12:07.940Z,67.47
2019-03-23T18:15:14.227Z,65.27
2019-03-23T18:18:20.207Z,57.33
2019-03-23T18:21:26.201Z,48.97
2019-03-23T18:24:32.172Z,58.17
2019-03-23T18:27:38.173Z,52.20
2019-03-23T18:30:45.106Z,55.40
2019-03-23T18:33:51.048Z,54.10
2019-03-23T18:36:57.308Z,54.40
2019-03-23T18:40:03.273Z,49.63
2019-03-23T18:43:09.267Z,49.10
2019-03-23T18:46:16.499Z,50.10
2019-03-23T18:49:22.429Z,49.37
2019-03-23T18:52:28.384Z,66.00
2019-03-23T18:55:34.368Z,43.63
2019-03-23T18:58:40.279Z,49.40
2019-03-23T19:01:46.157Z,50.50
2019-03-23T19:04:52.283Z,48.93
2019-03-23T19:07:59.678Z,45.73
2019-03-23T19:11:05.758Z,43.83
2019-03-23T19:14:12.370Z,45.50
2019-03-23T19:17:18.427Z,40.13
2019-03-23T19:20:24.383Z,54.03
2019-03-23T19:23:30.374Z,45.00
2019-03-23T19:26:39.568Z,45.97
2019-03-23T19:29:45.523Z,48.97
2019-03-23T19:32:51.432Z,48.60
2019-03-23T19:35:57.339Z,44.47
2019-03-23T19:39:05.105Z,52.33
2019-03-23T19:42:11.029Z,44.67
2019-03-23T19:45:16.998Z,42.50
2019-03-23T19:48:22.927Z,40.00
2019-03-23T19:51:28.967Z,41.30
2019-03-23T19:54:34.943Z,64.70
2019-03-23T19:57:41.018Z,49.97
2019-03-23T20:00:46.935Z,38.93
2019-03-23T20:03:52.968Z,43.20
2019-03-23T20:06:58.917Z,37.77
2019-03-23T20:10:05.328Z,36.97
2019-03-23T20:13:11.470Z,41.43
2019-03-23T20:16:17.366Z,39.03
2019-03-23T20:19:23.294Z,44.90
2019-03-23T20:22:29.245Z,44.43
2019-03-23T20:25:35.169Z,29.87
2019-03-23T20:28:41.212Z,32.30
2019-03-23T20:31:47.072Z,26.23
2019-03-23T20:34:53.062Z,27.63
2019-03-23T20:37:59.003Z,36.43
2019-03-23T20:41:05.068Z,32.70
2019-03-23T20:44:11.028Z,28.17
2019-03-23T20:47:16.956Z,34.03
2019-03-23T20:50:22.909Z,21.70
2019-03-23T20:53:29.021Z,24.73
2019-03-23T20:56:34.952Z,31.67
2019-03-23T20:59:40.980Z,22.03
2019-03-23T21:02:46.963Z,21.83
2019-03-23T21:05:52.881Z,23.73
2019-03-23T21:08:58.777Z,19.17
2019-03-23T21:12:04.711Z,19.83
2019-03-23T21:15:12.138Z,22.33
2019-03-23T21:18:18.007Z,27.77
2019-03-23T21:21:25.962Z,25.77
2019-03-23T21:24:31.897Z,22.33
2019-03-23T21:27:37.783Z,20.53
2019-03-23T21:30:43.738Z,21.70
2019-03-23T21:33:50.137Z,28.30
2019-03-23T21:36:56.072Z,19.90
2019-03-23T21:40:01.993Z,21.20
2019-03-23T21:43:08.903Z,40.00
2019-03-23T21:46:14.874Z,19.53
2019-03-23T21:49:20.831Z,25.77
2019-03-23T21:52:26.782Z,18.63
2019-03-23T21:55:32.747Z,22.70
2019-03-23T21:58:38.641Z,22.73
2019-03-23T22:01:44.716Z,19.53
2019-03-23T22:04:51.957Z,28.03
2019-03-23T22:07:57.864Z,28.77
2019-03-23T22:11:03.747Z,18.30
2019-03-23T22:14:09.647Z,33.77
2019-03-23T22:17:15.507Z,31.63
2019-03-23T22:20:21.462Z,19.80
2019-03-23T22:23:27.331Z,26.63
2019-03-23T22:26:33.277Z,18.03
2019-03-23T22:29:39.426Z,25.97
2019-03-23T22:32:45.559Z,19.67
2019-03-23T22:35:54.695Z,23.10
2019-03-23T22:39:00.746Z,25.97
2019-03-23T22:42:07.445Z,19.30
2019-03-23T22:45:13.600Z,23.63
2019-03-23T22:48:19.498Z,21.53
2019-03-23T22:51:25.377Z,18.83
2019-03-23T22:54:31.365Z,18.63
2019-03-23T22:57:37.336Z,28.97
2019-03-23T23:00:48.141Z,18.93
2019-03-23T23:03:54.246Z,21.83
2019-03-23T23:07:00.126Z,21.63
2019-03-23T23:10:06.762Z,25.57
2019-03-23T23:13:12.681Z,26.77
2019-03-23T23:16:19.066Z,21.23
2019-03-23T23:19:25.828Z,21.83
2019-03-23T23:22:31.762Z,25.83
2019-03-23T23:25:37.754Z,23.83
2019-03-23T23:28:43.677Z,23.60
2019-03-23T23:31:49.547Z,27.03
2019-03-23T23:34:56.459Z,21.97
2019-03-23T23:38:02.460Z,27.87
2019-03-23T23:41:08.457Z,19.77
2019-03-23T23:44:14.406Z,18.33
2019-03-23T23:47:20.260Z,25.37
2019-03-23T23:50:26.208Z,30.43
2019-03-23T23:53:32.149Z,34.30
2019-03-23T23:56:38.160Z,22.63
2019-03-23T23:59:44.087Z,29.50
